Time;durP1;ratioP1;P1;durP2;ratioP2;P2;SDS_P1;SDS_P2;PMS_P1;PMS_P2;Temp;Humidity;BMP_temperature;BMP_pressure;BME280_temperature;BME280_humidity;BME280_pressure;Samples;Min_cycle;Max_cycle;Signal;HPM_P1;HPM_P2
2023/09/01 00:02:18;;;;;;;2.87;1.73;;;14.50;99.90;;;;;;5062656;28;20473;-76
2023/09/01 00:04:44;;;;;;;3.53;1.70;;;14.40;99.90;;;;;;5066382;28;20482;-76
2023/09/01 00:07:11;;;;;;;1.43;1.07;;;14.50;99.90;;;;;;5064991;28;20487;-77
2023/09/01 00:09:38;;;;;;;1.83;1.20;;;14.50;99.90;;;;;;5066433;28;20497;-76
2023/09/01 00:12:06;;;;;;;3.00;1.80;;;14.40;99.90;;;;;;5059436;28;20471;-77
2023/09/01 00:14:33;;;;;;;1.20;0.90;;;14.40;99.90;;;;;;5061268;28;20534;-77
2023/09/01 00:17:01;;;;;;;2.80;0.93;;;14.40;99.90;;;;;;5060773;28;21019;-77
2023/09/01 00:19:29;;;;;;;1.70;0.90;;;14.40;99.90;;;;;;5067967;28;20520;-78
2023/09/01 00:21:55;;;;;;;3.17;1.20;;;14.40;99.90;;;;;;5066437;28;20463;-76
2023/09/01 00:24:22;;;;;;;1.30;1.20;;;14.40;99.90;;;;;;5068509;28;20479;-77
2023/09/01 00:26:49;;;;;;;1.70;1.50;;;14.40;99.90;;;;;;5060948;28;20497;-77
2023/09/01 00:29:16;;;;;;;2.20;2.00;;;14.50;99.90;;;;;;5065037;28;20922;-77
2023/09/01 00:31:44;;;;;;;1.40;1.30;;;14.50;99.90;;;;;;5068571;28;20471;-76
2023/09/01 00:34:13;;;;;;;2.07;1.17;;;14.50;99.90;;;;;;5064611;28;20613;-77
2023/09/01 00:36:40;;;;;;;1.50;1.40;;;14.60;99.90;;;;;;5067311;28;20548;-75
2023/09/01 00:39:08;;;;;;;1.27;1.10;;;14.60;99.90;;;;;;5063903;28;20556;-79
2023/09/01 00:41:35;;;;;;;2.80;1.40;;;14.60;99.90;;;;;;5057385;28;20447;-75
2023/09/01 00:44:03;;;;;;;2.03;1.50;;;14.50;99.90;;;;;;5069129;28;20545;-77
2023/09/01 00:46:32;;;;;;;5.20;2.50;;;14.40;99.90;;;;;;5053720;28;20435;-76
2023/09/01 00:48:59;;;;;;;2.30;1.43;;;14.40;99.90;;;;;;5064322;28;20440;-78
2023/09/01 00:51:29;;;;;;;1.30;1.20;;;14.40;99.90;;;;;;5065138;28;20558;-77
2023/09/01 00:53:56;;;;;;;1.33;1.23;;;14.40;99.90;;;;;;5068151;28;20527;-78
2023/09/01 00:56:23;;;;;;;6.40;2.00;;;14.50;99.90;;;;;;5065279;28;20616;-76
2023/09/01 00:58:50;;;;;;;1.33;1.10;;;14.40;99.90;;;;;;5058865;28;20442;-76
2023/09/01 01:01:17;;;;;;;1.13;1.07;;;14.40;99.90;;;;;;5059889;28;20449;-77
2023/09/01 01:03:44;;;;;;;1.83;1.27;;;14.30;99.90;;;;;;5059714;28;20499;-77
2023/09/01 01:06:20;;;;;;;1.50;1.30;;;14.30;99.90;;;;;;5065914;28;20481;-77
2023/09/01 01:08:57;;;;;;;1.10;1.00;;;14.40;99.90;;;;;;5055688;28;20446;-77
2023/09/01 01:11:29;;;;;;;1.20;1.00;;;14.50;99.90;;;;;;5065534;28;21112;-76
2023/09/01 01:14:00;;;;;;;2.27;1.57;;;14.40;99.90;;;;;;5057490;28;21057;-80
2023/09/01 01:16:29;;;;;;;2.93;1.33;;;14.50;99.90;;;;;;5067351;28;20473;-78
2023/09/01 01:19:00;;;;;;;1.83;1.60;;;14.40;99.90;;;;;;5051773;28;20490;-76
2023/09/01 01:21:30;;;;;;;1.00;0.90;;;14.50;99.90;;;;;;5055111;28;21020;-76
2023/09/01 01:24:00;;;;;;;2.80;1.93;;;14.60;99.90;;;;;;5054848;28;21207;-76
2023/09/01 01:26:27;;;;;;;1.50;1.40;;;14.60;99.90;;;;;;5065411;28;20489;-78
2023/09/01 01:28:54;;;;;;;1.73;1.63;;;14.60;99.90;;;;;;5063091;28;20459;-77
2023/09/01 01:31:21;;;;;;;1.13;1.03;;;14.50;99.90;;;;;;5062211;28;20477;-76
2023/09/01 01:33:53;;;;;;;1.40;1.00;;;14.40;99.90;;;;;;5061733;28;20483;-76
2023/09/01 01:36:31;;;;;;;1.60;1.33;;;14.50;99.90;;;;;;5050180;28;20542;-79
2023/09/01 01:39:05;;;;;;;5.80;1.50;;;14.60;99.90;;;;;;5066856;28;20456;-77
2023/09/01 01:41:41;;;;;;;1.37;1.27;;;14.50;99.90;;;;;;5064233;28;20485;-77
2023/09/01 01:44:10;;;;;;;2.10;1.27;;;14.50;99.90;;;;;;5060839;28;20474;-79
2023/09/01 01:46:39;;;;;;;1.37;0.97;;;14.50;99.90;;;;;;5059983;28;20511;-79
2023/09/01 01:49:10;;;;;;;1.17;1.03;;;14.50;99.90;;;;;;5056703;28;20445;-77
2023/09/01 01:51:37;;;;;;;1.20;1.10;;;14.50;99.90;;;;;;5057863;28;20465;-77
2023/09/01 01:54:06;;;;;;;1.10;1.00;;;14.50;99.90;;;;;;5058394;28;20458;-77
2023/09/01 01:56:34;;;;;;;2.57;1.20;;;14.50;99.90;;;;;;5066293;28;20533;-76
2023/09/01 01:59:04;;;;;;;5.17;1.70;;;14.40;99.90;;;;;;5059283;28;20462;-77
2023/09/01 02:01:31;;;;;;;1.10;1.00;;;14.40;99.90;;;;;;5056957;28;20642;-76
2023/09/01 02:03:58;;;;;;;1.43;1.10;;;14.40;99.90;;;;;;5063710;28;20470;-79
2023/09/01 02:06:25;;;;;;;4.17;1.20;;;14.30;99.90;;;;;;5062399;28;21015;-76
2023/09/01 02:08:52;;;;;;;1.20;1.10;;;14.30;99.90;;;;;;5065442;28;20915;-76
2023/09/01 02:11:20;;;;;;;1.77;0.80;;;14.30;99.90;;;;;;5064938;28;20523;-76
2023/09/01 02:13:48;;;;;;;1.07;0.97;;;14.30;99.90;;;;;;5059727;28;20504;-77
2023/09/01 02:16:15;;;;;;;1.30;1.20;;;14.30;99.90;;;;;;5059741;28;20941;-79
2023/09/01 02:18:42;;;;;;;2.47;1.73;;;14.30;99.90;;;;;;5056256;28;20467;-75
2023/09/01 02:21:09;;;;;;;1.20;1.10;;;14.20;99.90;;;;;;5061161;28;20440;-78
2023/09/01 02:23:36;;;;;;;4.20;1.07;;;14.30;99.90;;;;;;5057725;28;20475;-78
2023/09/01 02:26:04;;;;;;;1.63;1.07;;;14.20;99.90;;;;;;5063272;28;21144;-77
2023/09/01 02:28:32;;;;;;;7.10;2.03;;;14.20;99.90;;;;;;5060664;28;20933;-76
2023/09/01 02:31:09;;;;;;;1.50;1.40;;;14.10;99.90;;;;;;5056679;28;20487;-77
2023/09/01 02:33:36;;;;;;;1.37;1.27;;;14.00;99.90;;;;;;5056494;28;20450;-77
2023/09/01 02:36:26;;;;;;;2.03;1.37;;;14.00;99.90;;;;;;5052964;28;21171;-75
2023/09/01 02:38:53;;;;;;;1.80;1.27;;;14.10;99.90;;;;;;5058613;28;20511;-76
2023/09/01 02:41:20;;;;;;;2.30;1.80;;;14.10;99.90;;;;;;5066155;28;20453;-77
2023/09/01 02:43:49;;;;;;;2.03;1.30;;;14.10;99.90;;;;;;5067052;28;20445;-74
2023/09/01 02:46:16;;;;;;;1.73;1.20;;;14.10;99.90;;;;;;5062863;28;20568;-77
2023/09/01 02:48:43;;;;;;;1.80;1.70;;;14.10;99.90;;;;;;5066482;28;20477;-79
2023/09/01 02:51:10;;;;;;;2.30;1.70;;;14.10;99.90;;;;;;5064840;28;20446;-76
2023/09/01 02:53:38;;;;;;;2.43;2.27;;;14.00;99.90;;;;;;5069482;28;20532;-77
2023/09/01 02:56:05;;;;;;;1.30;1.20;;;14.10;99.90;;;;;;5067235;28;20509;-77
2023/09/01 02:58:34;;;;;;;1.37;1.10;;;14.10;99.90;;;;;;5065501;28;20442;-76
2023/09/01 03:01:07;;;;;;;0.90;0.80;;;14.10;99.90;;;;;;5066880;28;20534;-77
2023/09/01 03:03:35;;;;;;;5.50;1.10;;;14.10;99.90;;;;;;5070179;28;20446;-77
2023/09/01 03:06:03;;;;;;;1.87;1.30;;;14.10;99.90;;;;;;5065172;28;20577;-76
2023/09/01 03:08:30;;;;;;;1.83;1.10;;;14.10;99.90;;;;;;5061986;28;20442;-76
2023/09/01 03:10:57;;;;;;;1.10;1.00;;;14.10;99.90;;;;;;5062187;28;20496;-76
2023/09/01 03:13:24;;;;;;;1.20;1.10;;;14.20;99.90;;;;;;5056889;28;20806;-76
2023/09/01 03:15:53;;;;;;;2.00;1.47;;;14.20;99.90;;;;;;5059290;28;20445;-77
2023/09/01 03:18:22;;;;;;;1.00;1.00;;;14.20;99.90;;;;;;5058221;28;20455;-75
2023/09/01 03:20:50;;;;;;;0.83;0.80;;;14.20;99.90;;;;;;5060442;28;20486;-77
2023/09/01 03:23:17;;;;;;;1.77;0.90;;;14.20;99.90;;;;;;5061345;28;20477;-76
2023/09/01 03:25:44;;;;;;;1.27;0.83;;;14.30;99.90;;;;;;5068197;28;20541;-76
2023/09/01 03:28:11;;;;;;;1.73;1.17;;;14.20;99.90;;;;;;5067188;28;20533;-78
2023/09/01 03:30:41;;;;;;;0.80;0.70;;;14.20;99.90;;;;;;5059522;28;20448;-80
2023/09/01 03:33:08;;;;;;;1.10;1.00;;;14.30;99.90;;;;;;5061834;28;20844;-76
2023/09/01 03:35:36;;;;;;;2.33;1.33;;;14.30;99.90;;;;;;5057472;28;20442;-76
2023/09/01 03:38:03;;;;;;;1.93;0.83;;;14.30;99.90;;;;;;5063555;28;20511;-75
2023/09/01 03:40:30;;;;;;;5.80;0.70;;;14.40;99.90;;;;;;5057420;28;20446;-78
2023/09/01 03:42:57;;;;;;;2.33;1.10;;;14.40;99.90;;;;;;5056052;28;20444;-75
2023/09/01 03:45:24;;;;;;;2.83;1.17;;;14.30;99.90;;;;;;5061467;28;21043;-76
2023/09/01 03:47:51;;;;;;;1.90;1.27;;;14.30;99.90;;;;;;5062052;28;20501;-76
2023/09/01 03:50:18;;;;;;;1.20;1.17;;;14.30;99.90;;;;;;5057970;28;20467;-78
2023/09/01 03:52:46;;;;;;;0.80;0.80;;;14.20;99.90;;;;;;5058076;28;20495;-75
2023/09/01 03:55:13;;;;;;;1.33;1.20;;;14.30;99.90;;;;;;5062278;28;20433;-81
2023/09/01 03:57:40;;;;;;;1.30;1.20;;;14.30;99.90;;;;;;5063741;28;20470;-79
2023/09/01 04:00:10;;;;;;;1.37;1.27;;;14.40;99.90;;;;;;5062088;28;20515;-77
2023/09/01 04:02:38;;;;;;;1.97;1.77;;;14.40;99.90;;;;;;5057212;28;21155;-77
2023/09/01 04:05:06;;;;;;;3.87;1.60;;;14.30;99.90;;;;;;5062027;28;20464;-76
2023/09/01 04:07:33;;;;;;;1.47;1.37;;;14.30;99.90;;;;;;5067179;28;20572;-75
2023/09/01 04:10:04;;;;;;;2.57;1.53;;;14.30;99.90;;;;;;5062540;28;20488;-77
2023/09/01 04:12:31;;;;;;;2.87;2.00;;;14.30;99.90;;;;;;5060505;28;20453;-77
2023/09/01 04:14:58;;;;;;;5.13;1.00;;;14.30;99.90;;;;;;5057663;28;20520;-77
2023/09/01 04:17:25;;;;;;;1.50;1.30;;;14.20;99.90;;;;;;5063112;28;21030;-77
2023/09/01 04:19:52;;;;;;;2.20;1.17;;;14.20;99.90;;;;;;5062208;28;20498;-78
2023/09/01 04:22:19;;;;;;;1.83;1.70;;;14.20;99.90;;;;;;5065288;28;20540;-76
2023/09/01 04:24:46;;;;;;;4.93;1.50;;;14.40;99.90;;;;;;5063370;28;20474;-77
2023/09/01 04:27:14;;;;;;;1.33;1.17;;;14.30;99.90;;;;;;5060018;28;20608;-77
2023/09/01 04:29:41;;;;;;;1.30;1.20;;;14.40;99.90;;;;;;5068879;28;20457;-76
2023/09/01 04:32:08;;;;;;;1.63;1.53;;;14.30;99.90;;;;;;5063739;28;20483;-76
2023/09/01 04:34:35;;;;;;;2.17;1.90;;;14.50;99.90;;;;;;5057802;28;20446;-76
2023/09/01 04:37:03;;;;;;;1.27;1.17;;;14.50;99.90;;;;;;5060815;28;20486;-79
2023/09/01 04:39:30;;;;;;;4.13;1.50;;;14.50;99.90;;;;;;5066444;28;20490;-77
2023/09/01 04:41:57;;;;;;;1.17;1.07;;;14.50;99.90;;;;;;5056040;28;20516;-76
2023/09/01 04:44:26;;;;;;;2.10;1.90;;;14.40;99.90;;;;;;5058298;28;20468;-76
2023/09/01 04:46:52;;;;;;;1.20;1.10;;;14.30;99.90;;;;;;5055364;28;21022;-77
2023/09/01 04:49:19;;;;;;;1.90;1.37;;;14.40;99.90;;;;;;5064805;28;20464;-77
2023/09/01 04:51:46;;;;;;;1.30;1.00;;;14.40;99.90;;;;;;5061701;28;20853;-81
2023/09/01 04:54:13;;;;;;;1.30;0.90;;;14.40;99.90;;;;;;5065293;28;20447;-76
2023/09/01 04:56:42;;;;;;;2.60;1.20;;;14.50;99.90;;;;;;5062779;28;20475;-74
2023/09/01 04:59:08;;;;;;;2.43;0.90;;;14.60;99.90;;;;;;5062855;28;20450;-76
2023/09/01 05:01:37;;;;;;;3.47;2.37;;;14.70;99.90;;;;;;5060394;28;20870;-75
2023/09/01 05:04:05;;;;;;;2.60;1.70;;;14.70;99.90;;;;;;5061541;28;20918;-76
2023/09/01 05:06:32;;;;;;;2.33;1.30;;;14.70;99.90;;;;;;5064064;28;20478;-79
2023/09/01 05:08:59;;;;;;;2.23;1.97;;;14.70;99.90;;;;;;5058007;28;20940;-78
2023/09/01 05:11:26;;;;;;;1.60;1.30;;;14.90;99.90;;;;;;5064713;28;20654;-75
2023/09/01 05:13:53;;;;;;;1.83;1.40;;;14.90;99.90;;;;;;5062634;28;21030;-75
2023/09/01 05:16:19;;;;;;;1.67;1.57;;;15.00;99.90;;;;;;5062669;28;20478;-76
2023/09/01 05:18:48;;;;;;;2.37;1.60;;;15.10;99.90;;;;;;5058235;28;20487;-78
2023/09/01 05:21:15;;;;;;;1.40;1.30;;;15.00;99.90;;;;;;5066306;28;20490;-76
2023/09/01 05:23:43;;;;;;;1.50;1.13;;;14.90;99.90;;;;;;5057072;28;21054;-76
2023/09/01 05:26:10;;;;;;;1.50;1.40;;;14.90;99.90;;;;;;5062940;28;21005;-77
2023/09/01 05:28:37;;;;;;;2.70;1.43;;;14.80;99.90;;;;;;5063624;28;20484;-77
2023/09/01 05:31:04;;;;;;;2.33;1.17;;;14.80;99.90;;;;;;5066992;28;20436;-75
2023/09/01 05:33:31;;;;;;;2.40;1.60;;;14.80;99.90;;;;;;5063833;28;20442;-79
2023/09/01 05:35:59;;;;;;;1.67;1.43;;;14.80;99.90;;;;;;5059011;28;20483;-76
2023/09/01 05:38:26;;;;;;;1.47;1.37;;;14.90;99.90;;;;;;5066047;28;20455;-76
2023/09/01 05:40:57;;;;;;;1.57;1.47;;;15.00;99.90;;;;;;5066778;28;20439;-76
2023/09/01 05:43:24;;;;;;;1.77;1.33;;;15.10;99.90;;;;;;5067137;28;20529;-74
2023/09/01 05:45:52;;;;;;;3.67;1.53;;;15.10;99.90;;;;;;5064141;28;21175;-77
2023/09/01 05:48:19;;;;;;;1.27;1.10;;;15.20;99.90;;;;;;5064935;28;20539;-78
2023/09/01 05:50:46;;;;;;;2.27;1.50;;;15.30;99.90;;;;;;5080002;28;20914;-76
2023/09/01 05:53:14;;;;;;;2.10;1.63;;;15.40;99.90;;;;;;5067579;28;20489;-78
2023/09/01 05:55:41;;;;;;;1.53;1.23;;;15.70;99.90;;;;;;5069860;28;20459;-78
2023/09/01 05:58:08;;;;;;;4.00;1.87;;;15.80;99.90;;;;;;5066815;28;21015;-79
2023/09/01 06:00:35;;;;;;;1.70;1.20;;;16.00;99.90;;;;;;5065642;28;20517;-77
2023/09/01 06:03:03;;;;;;;1.27;1.17;;;16.00;99.90;;;;;;5066634;28;20483;-78
2023/09/01 06:05:30;;;;;;;5.37;1.37;;;16.20;99.90;;;;;;5062850;28;20466;-76
2023/09/01 06:07:57;;;;;;;1.67;1.07;;;16.20;99.90;;;;;;5066592;28;20508;-76
2023/09/01 06:10:26;;;;;;;1.53;1.43;;;16.30;99.90;;;;;;5064486;28;20521;-78
2023/09/01 06:12:53;;;;;;;3.63;1.37;;;16.50;99.90;;;;;;5065748;28;20514;-75
2023/09/01 06:15:20;;;;;;;3.23;1.47;;;16.50;99.90;;;;;;5064827;28;20479;-76
2023/09/01 06:17:47;;;;;;;2.47;1.30;;;16.70;99.90;;;;;;5070434;28;20561;-79
2023/09/01 06:20:14;;;;;;;1.47;1.17;;;16.60;99.90;;;;;;5066189;28;20483;-75
2023/09/01 06:22:41;;;;;;;1.37;1.27;;;16.60;99.90;;;;;;5074619;28;21160;-76
2023/09/01 06:25:09;;;;;;;1.27;1.13;;;16.40;99.90;;;;;;5067974;28;20455;-75
2023/09/01 06:27:37;;;;;;;1.57;1.47;;;16.30;99.90;;;;;;5051408;28;21063;-78
2023/09/01 06:30:05;;;;;;;1.50;1.40;;;16.40;99.90;;;;;;5060120;28;20509;-74
2023/09/01 06:32:32;;;;;;;1.73;1.20;;;16.30;99.90;;;;;;5062471;28;20529;-77
2023/09/01 06:34:59;;;;;;;3.60;1.83;;;16.50;99.90;;;;;;5059893;28;21052;-76
2023/09/01 06:37:26;;;;;;;2.00;1.73;;;16.50;99.90;;;;;;5058489;28;20538;-77
2023/09/01 06:39:53;;;;;;;21.50;3.47;;;16.60;99.90;;;;;;5047884;28;20469;-74
2023/09/01 06:42:20;;;;;;;1.60;1.40;;;16.70;99.90;;;;;;5063678;28;20532;-76
2023/09/01 06:44:49;;;;;;;1.50;1.40;;;16.70;99.90;;;;;;5055034;28;20848;-77
2023/09/01 06:47:16;;;;;;;1.60;1.17;;;16.90;99.90;;;;;;5052186;28;20570;-78
2023/09/01 06:49:43;;;;;;;3.70;1.63;;;16.90;99.90;;;;;;5057203;28;20441;-74
2023/09/01 06:52:10;;;;;;;1.97;1.70;;;17.20;99.90;;;;;;5063346;28;20579;-78
2023/09/01 06:54:39;;;;;;;1.40;1.30;;;17.10;99.90;;;;;;5064246;28;20440;-75
2023/09/01 06:57:06;;;;;;;1.50;1.17;;;17.30;99.90;;;;;;5064587;28;20468;-78
2023/09/01 06:59:33;;;;;;;2.10;1.73;;;17.20;99.90;;;;;;5061957;28;20441;-76
2023/09/01 07:02:02;;;;;;;2.17;1.50;;;17.20;99.90;;;;;;5053400;28;20512;-79
2023/09/01 07:04:29;;;;;;;1.70;1.27;;;17.00;99.90;;;;;;5063187;28;20555;-79
2023/09/01 07:06:56;;;;;;;2.50;1.93;;;16.90;99.90;;;;;;5064404;28;20838;-76
2023/09/01 07:09:23;;;;;;;2.00;1.50;;;16.90;99.90;;;;;;5064071;28;20957;-78
2023/09/01 07:11:50;;;;;;;1.50;0.90;;;17.00;99.90;;;;;;5063928;28;21122;-76
2023/09/01 07:14:16;;;;;;;4.97;1.73;;;16.90;99.90;;;;;;5064082;28;20509;-73
2023/09/01 07:16:43;;;;;;;5.13;1.30;;;17.00;99.90;;;;;;5059447;28;20875;-75
2023/09/01 07:19:12;;;;;;;3.03;1.50;;;16.90;99.90;;;;;;5061435;28;20509;-74
2023/09/01 07:21:39;;;;;;;5.60;2.27;;;16.90;99.90;;;;;;5061415;28;20473;-83
2023/09/01 07:24:06;;;;;;;1.73;1.63;;;16.90;99.90;;;;;;5053817;28;20886;-74
2023/09/01 07:26:33;;;;;;;2.20;1.30;;;16.80;99.90;;;;;;5066466;28;20460;-84
2023/09/01 07:29:00;;;;;;;3.17;2.87;;;16.80;99.90;;;;;;5067091;28;20521;-80
2023/09/01 07:31:27;;;;;;;7.50;2.37;;;16.90;99.90;;;;;;5062025;28;20922;-80
2023/09/01 07:33:54;;;;;;;1.53;1.43;;;17.00;99.90;;;;;;5065951;28;20471;-79
2023/09/01 07:36:22;;;;;;;2.97;1.10;;;17.00;99.90;;;;;;5067120;28;20531;-81
2023/09/01 07:38:49;;;;;;;1.40;1.30;;;17.10;99.90;;;;;;5059503;28;20577;-81
2023/09/01 07:41:16;;;;;;;2.17;1.97;;;17.10;99.90;;;;;;5058115;28;20463;-82
2023/09/01 07:43:43;;;;;;;4.90;1.73;;;17.20;99.90;;;;;;5068329;28;20460;-82
2023/09/01 07:46:10;;;;;;;1.83;1.23;;;17.30;99.90;;;;;;5060891;28;20943;-84
2023/09/01 07:48:37;;;;;;;1.40;1.30;;;17.50;99.90;;;;;;5064559;28;20479;-75
2023/09/01 07:51:04;;;;;;;2.20;1.10;;;17.60;99.90;;;;;;5064899;28;20480;-81
2023/09/01 07:53:33;;;;;;;3.03;2.00;;;17.50;99.90;;;;;;5064830;28;20448;-79
2023/09/01 07:56:00;;;;;;;1.67;1.33;;;17.70;99.90;;;;;;5064524;28;20510;-79
2023/09/01 07:58:26;;;;;;;3.73;2.03;;;17.80;99.90;;;;;;5065810;28;20440;-79
2023/09/01 08:00:53;;;;;;;2.00;1.80;;;17.90;99.90;;;;;;5063240;28;20463;-78
2023/09/01 08:03:20;;;;;;;1.13;0.90;;;18.00;99.90;;;;;;5062574;28;20480;-81
2023/09/01 08:05:47;;;;;;;1.73;1.13;;;18.00;99.90;;;;;;5068035;28;20532;-80
2023/09/01 08:08:14;;;;;;;1.97;1.40;;;18.00;99.90;;;;;;5064071;28;20529;-79
2023/09/01 08:10:43;;;;;;;3.83;1.30;;;18.10;99.90;;;;;;5067707;28;20443;-83
2023/09/01 08:13:10;;;;;;;2.57;1.20;;;18.50;99.90;;;;;;5063358;28;20453;-84
2023/09/01 08:15:37;;;;;;;2.20;1.50;;;18.80;99.90;;;;;;5063362;28;20480;-82
2023/09/01 08:18:04;;;;;;;3.53;2.00;;;18.70;99.90;;;;;;5071094;28;20702;-83
2023/09/01 08:20:32;;;;;;;2.80;2.27;;;18.90;99.90;;;;;;5069939;28;20511;-86
2023/09/01 08:22:59;;;;;;;2.73;1.33;;;18.90;99.90;;;;;;5067428;28;20462;-80
2023/09/01 08:25:26;;;;;;;4.43;1.17;;;19.00;99.90;;;;;;5068447;28;20481;-81
2023/09/01 08:27:54;;;;;;;2.00;1.53;;;19.00;99.90;;;;;;5063517;28;20484;-80
2023/09/01 08:30:21;;;;;;;2.40;2.17;;;19.10;99.90;;;;;;5063178;28;20480;-83
2023/09/01 08:32:48;;;;;;;1.93;1.30;;;19.30;99.90;;;;;;5065430;28;20456;-87
2023/09/01 08:35:15;;;;;;;3.70;2.80;;;19.60;99.90;;;;;;5065237;28;20921;-80
2023/09/01 08:37:42;;;;;;;1.47;1.00;;;19.90;99.90;;;;;;5062023;28;21187;-80
2023/09/01 08:40:11;;;;;;;1.53;1.27;;;19.90;99.90;;;;;;5065713;28;21063;-82
2023/09/01 08:42:45;;;;;;;1.30;1.20;;;20.10;99.90;;;;;;5060899;28;20465;-80
2023/09/01 08:45:14;;;;;;;2.27;0.90;;;20.30;99.90;;;;;;5063019;28;20449;-80
2023/09/01 08:47:45;;;;;;;1.40;1.27;;;20.20;99.90;;;;;;5050407;28;20490;-78
2023/09/01 08:50:12;;;;;;;2.50;1.07;;;20.30;99.90;;;;;;5057041;28;20547;-82
2023/09/01 08:52:41;;;;;;;2.10;0.90;;;20.40;99.90;;;;;;5059701;28;20506;-82
2023/09/01 08:55:09;;;;;;;2.20;1.53;;;20.40;99.90;;;;;;5055896;28;20448;-79
2023/09/01 08:57:37;;;;;;;1.40;1.30;;;20.30;99.90;;;;;;5065508;28;20466;-79
2023/09/01 09:00:05;;;;;;;1.17;1.00;;;20.40;99.90;;;;;;5065562;28;21016;-79
2023/09/01 09:02:34;;;;;;;2.40;1.23;;;20.80;99.90;;;;;;5057286;28;20555;-81
2023/09/01 09:05:01;;;;;;;1.90;1.80;;;20.90;99.90;;;;;;5059541;28;20547;-79
2023/09/01 09:07:29;;;;;;;1.10;0.83;;;20.60;99.90;;;;;;5065747;28;20480;-79
2023/09/01 09:09:57;;;;;;;2.30;0.90;;;20.40;99.90;;;;;;5054831;28;20432;-79
2023/09/01 09:12:34;;;;;;;2.10;0.90;;;20.30;99.90;;;;;;5058020;28;20475;-80
2023/09/01 09:15:03;;;;;;;1.23;1.00;;;20.60;99.90;;;;;;5068290;28;20455;-80
2023/09/01 09:17:44;;;;;;;1.10;1.00;;;20.50;99.90;;;;;;5060229;28;20954;-80
2023/09/01 09:20:11;;;;;;;0.60;0.60;;;20.50;99.90;;;;;;5053634;28;20460;-80
2023/09/01 09:22:52;;;;;;;0.80;0.70;;;20.40;99.90;;;;;;5055094;28;20490;-80
2023/09/01 09:25:27;;;;;;;1.83;1.00;;;20.70;99.90;;;;;;5053261;28;20498;-80
2023/09/01 09:27:54;;;;;;;0.90;0.77;;;21.10;99.90;;;;;;5060727;28;20512;-80
2023/09/01 09:30:21;;;;;;;1.97;0.97;;;21.50;99.90;;;;;;5062586;28;20867;-80
2023/09/01 09:33:02;;;;;;;1.00;0.83;;;21.90;99.90;;;;;;5064266;28;20872;-79
2023/09/01 09:35:29;;;;;;;0.90;0.90;;;21.70;99.90;;;;;;5063887;28;20459;-78
2023/09/01 09:37:58;;;;;;;1.67;0.60;;;21.30;99.90;;;;;;5067729;28;20444;-79
2023/09/01 09:40:25;;;;;;;1.20;0.80;;;21.10;99.90;;;;;;5065113;28;20464;-81
2023/09/01 09:42:52;;;;;;;2.40;0.90;;;21.30;99.90;;;;;;5067090;28;20497;-80
2023/09/01 09:45:26;;;;;;;1.17;1.07;;;21.40;99.90;;;;;;5067484;28;20443;-81
2023/09/01 09:47:56;;;;;;;1.27;0.90;;;21.70;99.90;;;;;;5066754;28;20480;-81
2023/09/01 09:50:24;;;;;;;0.90;0.90;;;22.00;99.90;;;;;;5064842;28;20518;-80
2023/09/01 09:52:57;;;;;;;0.73;0.73;;;21.90;99.90;;;;;;5067502;28;20440;-78
2023/09/01 09:55:26;;;;;;;0.77;0.70;;;21.20;99.90;;;;;;5064750;28;20989;-80
2023/09/01 09:58:02;;;;;;;1.33;1.00;;;21.20;99.90;;;;;;5066262;28;20471;-80
2023/09/01 10:00:31;;;;;;;1.30;0.90;;;21.40;99.90;;;;;;5065945;28;20456;-80
2023/09/01 10:03:01;;;;;;;1.37;0.90;;;21.80;99.90;;;;;;5067574;28;20498;-79
2023/09/01 10:05:32;;;;;;;0.70;0.70;;;21.90;99.90;;;;;;5064391;28;20463;-81
2023/09/01 10:08:02;;;;;;;1.83;1.23;;;21.80;99.90;;;;;;5066023;28;20491;-79
2023/09/01 10:10:31;;;;;;;1.63;0.77;;;21.70;99.90;;;;;;5068970;28;20481;-79
2023/09/01 10:12:58;;;;;;;1.00;0.70;;;21.80;99.90;;;;;;5069034;28;20835;-79
2023/09/01 10:15:26;;;;;;;1.73;0.80;;;21.90;99.90;;;;;;5067361;28;20439;-79
2023/09/01 10:17:53;;;;;;;1.83;1.20;;;21.90;99.90;;;;;;5066328;28;20458;-80
2023/09/01 10:20:21;;;;;;;0.80;0.80;;;22.20;99.90;;;;;;5063546;28;20583;-80
2023/09/01 10:22:48;;;;;;;1.13;0.63;;;22.20;99.90;;;;;;5065268;28;20517;-79
2023/09/01 10:25:17;;;;;;;0.77;0.60;;;22.30;99.90;;;;;;5064007;28;20451;-79
2023/09/01 10:28:07;;;;;;;1.00;0.80;;;22.30;99.90;;;;;;5058205;28;20510;-81
2023/09/01 10:30:36;;;;;;;1.60;1.17;;;22.20;99.90;;;;;;5064098;28;20486;-80
2023/09/01 10:33:06;;;;;;;1.20;1.00;;;22.20;99.90;;;;;;5059893;28;20424;-80
2023/09/01 10:35:46;;;;;;;1.20;1.00;;;22.20;99.90;;;;;;5064613;28;20519;-78
2023/09/01 10:38:15;;;;;;;0.80;0.60;;;22.10;99.90;;;;;;5065861;28;20510;-80
2023/09/01 10:40:47;;;;;;;0.90;0.67;;;22.10;99.90;;;;;;5065918;28;20874;-79
2023/09/01 10:43:15;;;;;;;1.83;0.67;;;22.00;99.90;;;;;;5065635;28;20513;-82
2023/09/01 10:45:42;;;;;;;0.70;0.70;;;21.70;99.90;;;;;;5063234;28;20469;-80
2023/09/01 10:48:12;;;;;;;1.03;0.70;;;21.40;99.90;;;;;;5053930;28;20807;-78
2023/09/01 10:50:45;;;;;;;0.87;0.60;;;21.30;99.90;;;;;;5065467;28;20451;-79
2023/09/01 10:53:31;;;;;;;1.10;0.60;;;21.50;99.90;;;;;;5055492;28;20457;-80
2023/09/01 10:56:12;;;;;;;0.87;0.60;;;21.70;99.90;;;;;;5052740;28;20514;-81
2023/09/01 10:58:47;;;;;;;3.60;0.73;;;22.00;99.90;;;;;;5047145;28;20449;-81
2023/09/01 11:01:28;;;;;;;1.67;0.77;;;22.50;99.90;;;;;;5059793;28;20803;-79
2023/09/01 11:03:56;;;;;;;1.00;0.80;;;22.90;99.90;;;;;;5057528;28;20547;-80
2023/09/01 11:06:24;;;;;;;0.70;0.70;;;22.90;99.90;;;;;;5067314;28;20462;-81
2023/09/01 11:08:59;;;;;;;0.70;0.70;;;22.90;99.90;;;;;;5065317;28;20510;-80
2023/09/01 11:11:26;;;;;;;0.70;0.57;;;22.80;99.90;;;;;;5062295;28;20518;-79
2023/09/01 11:14:00;;;;;;;0.93;0.60;;;22.90;99.90;;;;;;5063903;28;20478;-78
2023/09/01 11:16:27;;;;;;;0.80;0.80;;;22.90;99.90;;;;;;5064573;28;20465;-80
2023/09/01 11:19:01;;;;;;;0.70;0.70;;;22.90;99.90;;;;;;5066552;28;20487;-80
2023/09/01 11:21:30;;;;;;;1.00;0.70;;;23.20;99.90;;;;;;5065786;28;20454;-79
2023/09/01 11:23:58;;;;;;;1.07;0.73;;;23.60;99.90;;;;;;5060317;28;21066;-79
2023/09/01 11:26:26;;;;;;;0.60;0.60;;;23.80;99.90;;;;;;5067576;28;20448;-80
2023/09/01 11:28:53;;;;;;;1.33;1.00;;;23.50;99.90;;;;;;5069230;28;20483;-81
2023/09/01 11:31:19;;;;;;;0.70;0.70;;;23.60;99.90;;;;;;5069646;28;20444;-78
2023/09/01 11:33:52;;;;;;;0.67;0.53;;;23.40;99.90;;;;;;5062817;28;20467;-81
2023/09/01 11:36:20;;;;;;;0.90;0.63;;;23.20;99.90;;;;;;5068992;28;20464;-80
2023/09/01 11:38:48;;;;;;;3.40;1.00;;;23.30;99.90;;;;;;5069147;28;20864;-79
2023/09/01 11:41:18;;;;;;;1.93;0.57;;;23.30;99.90;;;;;;5069163;28;20780;-80
2023/09/01 11:43:45;;;;;;;0.83;0.80;;;23.30;99.90;;;;;;5069385;28;20739;-80
2023/09/01 11:46:12;;;;;;;0.97;0.97;;;23.30;99.90;;;;;;5069229;28;20435;-79
2023/09/01 11:48:40;;;;;;;0.50;0.50;;;23.40;99.90;;;;;;5069067;28;20517;-81
2023/09/01 11:51:08;;;;;;;1.23;0.50;;;23.50;99.90;;;;;;5066475;28;20565;-79
2023/09/01 11:53:36;;;;;;;0.80;0.60;;;23.50;99.90;;;;;;5066978;28;20543;-81
2023/09/01 11:56:19;;;;;;;1.00;0.83;;;23.40;99.90;;;;;;5062985;28;21079;-80
2023/09/01 11:58:46;;;;;;;1.40;0.57;;;23.60;99.90;;;;;;5063313;28;20459;-79
2023/09/01 12:01:15;;;;;;;0.80;0.63;;;23.60;99.90;;;;;;5058967;28;20543;-81
2023/09/01 12:03:44;;;;;;;0.60;0.60;;;23.40;99.90;;;;;;5065282;28;21127;-79
2023/09/01 12:06:16;;;;;;;0.60;0.50;;;23.60;99.90;;;;;;5060612;28;20549;-76
2023/09/01 12:08:43;;;;;;;0.87;0.70;;;23.50;99.90;;;;;;5064896;28;20484;-79
2023/09/01 12:11:11;;;;;;;0.83;0.60;;;23.70;99.90;;;;;;5060817;28;20497;-78
2023/09/01 12:13:38;;;;;;;0.73;0.70;;;23.90;99.90;;;;;;5061468;28;20560;-79
2023/09/01 12:16:06;;;;;;;0.90;0.60;;;23.90;99.90;;;;;;5064869;28;20943;-79
2023/09/01 12:18:34;;;;;;;1.70;0.90;;;23.90;99.90;;;;;;5057532;28;20464;-82
2023/09/01 12:21:06;;;;;;;0.80;0.70;;;23.70;99.90;;;;;;5057639;28;20483;-77
2023/09/01 12:23:35;;;;;;;0.70;0.63;;;23.70;99.90;;;;;;5069619;28;20462;-80
2023/09/01 12:26:02;;;;;;;1.43;1.33;;;23.80;99.90;;;;;;5062541;28;20483;-79
2023/09/01 12:28:32;;;;;;;0.80;0.80;;;23.70;99.90;;;;;;5067125;28;20507;-78
2023/09/01 12:31:00;;;;;;;0.70;0.60;;;24.00;99.90;;;;;;5060424;28;20440;-78
2023/09/01 12:33:27;;;;;;;0.70;0.60;;;23.90;99.90;;;;;;5060958;28;20518;-78
2023/09/01 12:35:55;;;;;;;0.80;0.70;;;24.10;99.90;;;;;;5059735;28;20982;-81
2023/09/01 12:38:22;;;;;;;0.90;0.70;;;24.20;99.00;;;;;;5072288;28;20462;-79
2023/09/01 12:40:50;;;;;;;5.10;0.80;;;23.80;99.90;;;;;;5063582;28;20483;-81
2023/09/01 12:43:17;;;;;;;1.13;0.53;;;23.40;99.90;;;;;;5060748;28;20487;-79
2023/09/01 12:45:45;;;;;;;3.03;0.70;;;23.40;99.90;;;;;;5060795;28;20530;-79
2023/09/01 12:48:13;;;;;;;0.83;0.57;;;23.60;99.90;;;;;;5058186;28;20586;-79
2023/09/01 12:50:45;;;;;;;1.10;1.00;;;23.60;99.90;;;;;;5064466;28;20479;-79
2023/09/01 12:53:11;;;;;;;0.60;0.50;;;23.70;99.90;;;;;;5058583;28;20506;-77
2023/09/01 12:55:38;;;;;;;0.60;0.50;;;23.70;99.70;;;;;;5053825;28;20495;-81